Time;durP1;ratioP1;P1;durP2;ratioP2;P2;SDS_P1;SDS_P2;PMS_P1;PMS_P2;Temp;Humidity;BMP_temperature;BMP_pressure;BME280_temperature;BME280_humidity;BME280_pressure;Samples;Min_cycle;Max_cycle;Signal;HPM_P1;HPM_P2
2022/07/02 00:00:54;;;;;;;9.00;1.20;;;14.10;98.80;;;;;;5045340;28;20029;-67
2022/07/02 00:03:24;;;;;;;6.60;1.00;;;14.10;99.00;;;;;;5045157;28;20032;-68
2022/07/02 00:05:59;;;;;;;5.95;0.93;;;13.90;99.30;;;;;;5077370;28;20237;-67
2022/07/02 00:08:26;;;;;;;3.75;1.00;;;13.90;99.40;;;;;;5045305;28;20125;-67
2022/07/02 00:10:53;;;;;;;6.72;1.13;;;13.90;99.60;;;;;;5077195;28;20057;-66
2022/07/02 00:13:20;;;;;;;5.88;0.80;;;13.90;99.60;;;;;;5045053;28;20023;-68
2022/07/02 00:15:45;;;;;;;6.07;1.15;;;13.90;99.70;;;;;;5043639;28;20335;-66
2022/07/02 00:18:12;;;;;;;7.20;1.45;;;13.90;99.80;;;;;;5044045;28;20044;-67
2022/07/02 00:20:38;;;;;;;6.43;0.90;;;13.90;99.90;;;;;;5045044;28;20179;-66
2022/07/02 00:23:04;;;;;;;7.07;1.27;;;13.80;99.90;;;;;;5043454;28;20041;-66
2022/07/02 00:25:37;;;;;;;4.15;1.20;;;13.70;99.90;;;;;;5060141;28;20048;-68
2022/07/02 00:28:05;;;;;;;6.53;0.95;;;13.70;99.90;;;;;;5044680;28;20071;-66
2022/07/02 00:30:32;;;;;;;2.60;0.90;;;13.70;99.90;;;;;;5044808;28;20043;-66
2022/07/02 00:33:00;;;;;;;6.28;0.95;;;13.80;99.90;;;;;;5043407;28;20122;-67
2022/07/02 00:35:27;;;;;;;4.10;0.90;;;13.70;99.90;;;;;;5043290;28;20040;-66
2022/07/02 00:37:54;;;;;;;4.38;1.05;;;13.70;99.90;;;;;;5044369;28;20018;-67
2022/07/02 00:40:20;;;;;;;4.65;0.82;;;13.60;99.90;;;;;;5044535;28;20037;-67
2022/07/02 00:42:46;;;;;;;3.22;0.90;;;13.60;99.90;;;;;;5044534;28;20028;-66
2022/07/02 00:45:12;;;;;;;5.35;1.52;;;13.60;99.90;;;;;;5043342;28;20255;-66
2022/07/02 00:47:41;;;;;;;4.47;0.85;;;13.60;99.90;;;;;;5044300;28;20017;-66
2022/07/02 00:50:07;;;;;;;5.28;1.10;;;13.50;99.90;;;;;;5043412;28;20025;-67
2022/07/02 00:52:33;;;;;;;4.80;0.80;;;13.50;99.90;;;;;;5044063;28;20386;-66
2022/07/02 00:54:59;;;;;;;4.82;1.05;;;13.50;99.90;;;;;;5043131;28;20101;-67
2022/07/02 00:57:25;;;;;;;4.70;0.68;;;13.50;99.90;;;;;;5044186;28;20021;-68
2022/07/02 00:59:51;;;;;;;3.53;0.88;;;13.50;99.90;;;;;;5043167;28;20028;-67
2022/07/02 01:02:21;;;;;;;3.85;0.80;;;13.40;99.90;;;;;;5043027;28;20063;-67
2022/07/02 01:04:49;;;;;;;7.30;1.10;;;13.40;99.90;;;;;;5043009;28;20025;-66
2022/07/02 01:07:16;;;;;;;6.25;1.20;;;13.50;99.90;;;;;;5042878;28;20027;-67
2022/07/02 01:12:34;;;;;;;5.00;0.90;;;13.50;99.90;;;;;;5029336;28;20021;-66
2022/07/02 01:15:00;;;;;;;6.07;1.20;;;13.50;99.90;;;;;;5042597;28;20056;-67
2022/07/02 01:17:26;;;;;;;4.00;1.10;;;13.60;99.90;;;;;;5043885;28;20362;-67
2022/07/02 01:19:52;;;;;;;4.32;1.00;;;13.60;99.90;;;;;;5044089;28;20025;-66
2022/07/02 01:22:20;;;;;;;3.53;0.90;;;13.50;99.90;;;;;;5042733;28;20292;-67
2022/07/02 01:24:49;;;;;;;2.63;0.80;;;13.50;99.90;;;;;;5042722;28;20013;-65
2022/07/02 01:27:15;;;;;;;2.33;0.90;;;13.50;99.90;;;;;;5043782;28;20097;-67
2022/07/02 01:29:41;;;;;;;4.00;1.08;;;13.50;99.90;;;;;;5043713;28;20029;-66
2022/07/02 01:32:07;;;;;;;9.25;2.00;;;13.50;99.90;;;;;;5042810;28;20021;-67
2022/07/02 01:34:37;;;;;;;5.85;1.02;;;13.50;99.90;;;;;;5041584;28;20331;-66
2022/07/02 01:37:06;;;;;;;8.82;1.20;;;13.50;99.90;;;;;;5058568;28;20032;-67
2022/07/02 01:39:32;;;;;;;6.15;0.90;;;13.50;99.90;;;;;;5075837;28;20098;-66
2022/07/02 01:41:57;;;;;;;3.22;0.88;;;13.60;99.90;;;;;;5043636;28;20359;-68
2022/07/02 01:44:23;;;;;;;6.88;0.90;;;13.60;99.90;;;;;;5043765;28;20022;-68
2022/07/02 01:46:49;;;;;;;3.47;0.88;;;13.60;99.90;;;;;;5043549;28;20057;-66
2022/07/02 01:49:14;;;;;;;4.32;1.00;;;13.70;99.90;;;;;;5043442;28;20370;-66
2022/07/02 01:51:40;;;;;;;5.03;1.05;;;13.60;99.90;;;;;;5043583;28;20041;-66
2022/07/02 01:54:07;;;;;;;5.85;0.70;;;13.70;99.90;;;;;;5058606;28;20313;-69
2022/07/02 01:56:33;;;;;;;3.88;1.10;;;13.80;99.90;;;;;;5075528;28;20034;-67
2022/07/02 01:58:59;;;;;;;6.15;0.88;;;13.80;99.90;;;;;;5043313;28;20048;-67
2022/07/02 02:01:25;;;;;;;3.13;0.65;;;13.90;99.90;;;;;;5075234;28;20260;-66
2022/07/02 02:03:50;;;;;;;7.55;1.02;;;14.00;99.70;;;;;;5043449;28;20021;-68
2022/07/02 02:06:16;;;;;;;3.80;0.95;;;14.10;99.80;;;;;;5075800;28;20343;-68
2022/07/02 02:08:42;;;;;;;2.95;1.00;;;14.10;99.90;;;;;;5042141;28;20096;-68
2022/07/02 02:11:07;;;;;;;7.68;1.20;;;14.10;99.90;;;;;;5043477;28;20029;-66
2022/07/02 02:13:33;;;;;;;6.70;0.70;;;14.20;99.90;;;;;;5043234;28;20021;-67
2022/07/02 02:15:59;;;;;;;5.53;0.85;;;14.20;99.90;;;;;;5043410;28;20033;-66
2022/07/02 02:18:24;;;;;;;7.85;1.00;;;14.20;99.90;;;;;;5043162;28;20088;-67
2022/07/02 02:20:50;;;;;;;4.30;0.80;;;14.20;99.90;;;;;;5075604;28;20029;-67
2022/07/02 02:23:16;;;;;;;10.38;1.05;;;14.20;99.90;;;;;;5058362;28;20021;-67
2022/07/02 02:25:41;;;;;;;3.80;0.93;;;14.30;99.90;;;;;;5043166;28;20079;-66
2022/07/02 02:28:07;;;;;;;9.63;1.00;;;14.30;99.90;;;;;;5043382;28;20092;-67
2022/07/02 02:30:32;;;;;;;5.28;0.85;;;14.30;99.90;;;;;;5043091;28;20021;-67
2022/07/02 02:32:58;;;;;;;5.50;1.10;;;14.30;99.90;;;;;;5075312;28;20025;-66
2022/07/02 02:35:24;;;;;;;6.28;1.08;;;14.30;99.90;;;;;;5041684;28;20097;-66
2022/07/02 02:37:49;;;;;;;5.15;0.98;;;14.30;99.90;;;;;;5043184;28;20022;-66
2022/07/02 02:40:17;;;;;;;4.55;0.98;;;14.40;99.90;;;;;;5059404;28;20217;-66
2022/07/02 02:42:42;;;;;;;6.10;1.23;;;14.40;99.90;;;;;;5045753;28;20033;-67
2022/07/02 02:45:08;;;;;;;8.45;1.00;;;14.40;99.90;;;;;;5046811;28;20204;-66
2022/07/02 02:47:34;;;;;;;6.47;0.93;;;14.40;99.90;;;;;;5046645;28;20021;-65
2022/07/02 02:50:00;;;;;;;7.30;1.60;;;14.40;99.90;;;;;;5078813;28;20029;-67
2022/07/02 02:52:25;;;;;;;3.67;0.88;;;14.40;99.90;;;;;;5061458;28;20056;-67
2022/07/02 02:54:51;;;;;;;5.32;0.68;;;14.50;99.90;;;;;;5045414;28;20247;-66
2022/07/02 02:57:16;;;;;;;7.00;1.90;;;14.50;99.90;;;;;;5046781;28;20299;-66
2022/07/02 02:59:42;;;;;;;4.15;1.48;;;14.50;99.90;;;;;;5061949;28;20044;-67
2022/07/02 03:02:08;;;;;;;4.03;0.95;;;14.60;99.90;;;;;;5045417;28;20025;-66
2022/07/02 03:04:33;;;;;;;8.18;1.25;;;14.60;99.90;;;;;;5062047;28;20018;-67
2022/07/02 03:06:59;;;;;;;5.53;0.70;;;14.60;99.90;;;;;;5062473;28;20028;-67
2022/07/02 03:09:25;;;;;;;5.03;0.80;;;14.60;99.90;;;;;;5046631;28;20029;-66
2022/07/02 03:11:51;;;;;;;6.32;1.20;;;14.60;99.90;;;;;;5078945;28;20208;-66
2022/07/02 03:14:16;;;;;;;8.10;1.35;;;14.60;99.90;;;;;;5062142;28;20029;-66
2022/07/02 03:16:42;;;;;;;5.97;0.90;;;14.60;99.90;;;;;;5047042;28;20132;-66
2022/07/02 03:19:08;;;;;;;4.05;0.80;;;14.60;99.90;;;;;;5062517;28;20021;-66
2022/07/02 03:21:33;;;;;;;5.53;0.90;;;14.70;99.90;;;;;;5047172;28;20092;-66
2022/07/02 03:23:59;;;;;;;4.32;0.85;;;14.60;99.90;;;;;;5047650;28;20028;-67
2022/07/02 03:26:25;;;;;;;6.85;1.10;;;14.70;99.90;;;;;;5068680;28;20029;-66
2022/07/02 03:28:51;;;;;;;7.53;1.30;;;14.70;99.90;;;;;;5071088;28;20033;-66
2022/07/02 03:31:16;;;;;;;10.32;1.33;;;14.70;99.90;;;;;;5087796;28;20068;-66
2022/07/02 03:33:42;;;;;;;2.78;0.93;;;14.70;99.90;;;;;;5054380;28;20076;-67
2022/07/02 03:36:08;;;;;;;5.88;1.27;;;14.70;99.90;;;;;;5051671;28;20032;-67
2022/07/02 03:38:34;;;;;;;3.78;1.27;;;14.70;99.90;;;;;;5054407;28;20020;-67
2022/07/02 03:41:01;;;;;;;7.40;1.27;;;14.80;99.90;;;;;;5051188;28;20081;-67
2022/07/02 03:43:27;;;;;;;8.27;1.35;;;14.80;99.90;;;;;;5051244;28;20033;-68
2022/07/02 03:45:52;;;;;;;5.97;1.10;;;14.80;99.90;;;;;;5047811;28;20084;-66
2022/07/02 03:48:18;;;;;;;5.85;1.15;;;14.80;99.90;;;;;;5045719;28;20021;-67
2022/07/02 03:50:44;;;;;;;8.57;1.15;;;14.80;99.90;;;;;;5044201;28;20321;-67
2022/07/02 03:53:10;;;;;;;7.43;1.17;;;14.80;99.90;;;;;;5042815;28;20088;-68
2022/07/02 03:55:35;;;;;;;5.82;1.33;;;14.90;99.90;;;;;;5045502;28;20068;-67
2022/07/02 03:58:01;;;;;;;7.20;1.30;;;14.90;99.90;;;;;;5044161;28;20017;-66
2022/07/02 04:00:27;;;;;;;6.47;1.10;;;14.90;99.90;;;;;;5043967;28;20025;-66
2022/07/02 04:02:53;;;;;;;7.80;1.17;;;14.90;99.90;;;;;;5044154;28;20021;-67
2022/07/02 04:05:19;;;;;;;6.85;1.20;;;14.80;99.90;;;;;;5045159;28;20181;-66
2022/07/02 04:07:44;;;;;;;6.93;1.10;;;14.80;99.90;;;;;;5044081;28;20204;-67
2022/07/02 04:10:10;;;;;;;3.90;0.93;;;14.90;99.90;;;;;;5045043;28;20037;-66
2022/07/02 04:12:36;;;;;;;7.35;1.00;;;14.90;99.90;;;;;;5043590;28;20079;-66
2022/07/02 04:15:02;;;;;;;6.93;1.00;;;14.90;99.90;;;;;;5043759;28;20048;-66
2022/07/02 04:17:27;;;;;;;8.40;1.33;;;14.90;99.90;;;;;;5044867;28;20017;-66
2022/07/02 04:19:53;;;;;;;6.15;1.15;;;14.90;99.90;;;;;;5044920;28;20036;-67
2022/07/02 04:22:19;;;;;;;7.32;1.02;;;15.00;99.90;;;;;;5043818;28;20089;-67
2022/07/02 04:24:44;;;;;;;6.38;1.33;;;15.00;99.90;;;;;;5043363;28;20032;-65
2022/07/02 04:27:10;;;;;;;5.70;1.08;;;15.00;99.90;;;;;;5044741;28;20022;-67
2022/07/02 04:29:36;;;;;;;11.40;1.33;;;14.90;99.90;;;;;;5043862;28;20212;-67
2022/07/02 04:32:02;;;;;;;3.03;0.82;;;14.90;99.90;;;;;;5044534;28;20017;-67
2022/07/02 04:34:28;;;;;;;5.85;0.95;;;14.90;99.90;;;;;;5044504;28;20165;-66
2022/07/02 04:36:53;;;;;;;5.85;1.10;;;14.90;99.90;;;;;;5041467;28;20383;-68
2022/07/02 04:39:19;;;;;;;6.10;1.17;;;14.90;99.90;;;;;;5060155;28;20021;-66
2022/07/02 04:41:45;;;;;;;8.13;1.30;;;14.90;99.90;;;;;;5076653;28;20240;-67
2022/07/02 04:44:10;;;;;;;5.57;1.35;;;14.90;99.90;;;;;;5044484;28;20135;-67
2022/07/02 04:46:36;;;;;;;6.35;1.15;;;15.00;99.90;;;;;;5044711;28;20022;-66
2022/07/02 04:49:02;;;;;;;9.25;1.35;;;15.00;99.90;;;;;;5044589;28;20182;-67
2022/07/02 04:51:27;;;;;;;4.22;0.88;;;14.90;99.90;;;;;;5044106;28;20041;-67
2022/07/02 04:53:53;;;;;;;7.47;1.42;;;15.00;99.90;;;;;;5044008;28;20029;-66
2022/07/02 04:56:19;;;;;;;6.03;0.98;;;15.00;99.90;;;;;;5044035;28;20017;-68
2022/07/02 04:58:44;;;;;;;4.70;1.13;;;15.00;99.90;;;;;;5044418;28;20074;-67
2022/07/02 05:01:10;;;;;;;4.38;0.90;;;15.10;99.90;;;;;;5075806;28;20025;-68
2022/07/02 05:03:36;;;;;;;5.93;0.98;;;15.10;99.90;;;;;;5076150;28;20021;-67
2022/07/02 05:06:01;;;;;;;7.03;1.30;;;15.20;99.90;;;;;;5076245;28;20021;-66
2022/07/02 05:08:27;;;;;;;4.15;1.08;;;15.20;99.90;;;;;;5076468;28;20029;-67
2022/07/02 05:10:54;;;;;;;6.25;1.40;;;15.20;99.90;;;;;;5042818;28;20017;-67
2022/07/02 05:13:21;;;;;;;3.75;1.15;;;15.30;99.90;;;;;;5044069;28;20313;-67
2022/07/02 05:15:47;;;;;;;8.57;1.38;;;15.40;99.90;;;;;;5059203;28;20100;-67
2022/07/02 05:18:13;;;;;;;6.60;1.08;;;15.40;99.90;;;;;;5044019;28;20084;-67
2022/07/02 05:20:39;;;;;;;7.35;1.13;;;15.40;99.90;;;;;;5044247;28;20025;-66
2022/07/02 05:23:04;;;;;;;7.32;1.48;;;15.40;99.90;;;;;;5043370;28;20332;-66
2022/07/02 05:25:30;;;;;;;4.97;1.13;;;15.50;99.90;;;;;;5043875;28;20088;-68
2022/07/02 05:27:56;;;;;;;4.40;1.05;;;15.50;99.90;;;;;;5043828;28;20028;-67
2022/07/02 05:30:21;;;;;;;10.60;1.42;;;15.50;99.90;;;;;;5042471;28;20037;-67
2022/07/02 05:32:47;;;;;;;6.28;1.23;;;15.50;99.90;;;;;;5043702;28;20017;-67
2022/07/02 05:35:12;;;;;;;9.57;1.38;;;15.60;99.90;;;;;;5043481;28;20096;-67
2022/07/02 05:37:38;;;;;;;7.70;1.10;;;15.60;99.90;;;;;;5042335;28;20064;-68
2022/07/02 05:40:04;;;;;;;6.38;0.98;;;15.70;99.90;;;;;;5042683;28;20043;-66
2022/07/02 05:42:30;;;;;;;7.20;0.95;;;15.70;99.90;;;;;;5042415;28;20235;-67
2022/07/02 05:44:56;;;;;;;9.07;1.33;;;15.80;99.90;;;;;;5043586;28;20071;-67
2022/07/02 05:47:22;;;;;;;9.98;1.38;;;15.80;99.90;;;;;;5042499;28;20049;-67
2022/07/02 05:49:47;;;;;;;9.25;1.33;;;15.90;99.90;;;;;;5042635;28;20236;-67
2022/07/02 05:52:14;;;;;;;6.78;1.20;;;15.90;99.90;;;;;;5042917;28;20050;-67
2022/07/02 05:54:40;;;;;;;5.72;0.95;;;15.90;99.90;;;;;;5041995;28;20098;-68
2022/07/02 05:57:06;;;;;;;8.38;1.42;;;15.90;99.90;;;;;;5043747;28;20021;-66
2022/07/02 05:59:31;;;;;;;5.82;1.30;;;16.00;99.90;;;;;;5042283;28;20055;-67
2022/07/02 06:01:57;;;;;;;7.72;1.27;;;16.10;99.90;;;;;;5043305;28;20162;-67
2022/07/02 06:04:22;;;;;;;8.93;1.30;;;16.10;99.90;;;;;;5043418;28;20220;-66
2022/07/02 06:09:34;;;;;;;5.82;1.23;;;16.10;99.90;;;;;;5042466;28;20025;-68
2022/07/02 06:12:00;;;;;;;7.05;1.30;;;16.20;99.90;;;;;;5043317;28;20021;-66
2022/07/02 06:14:26;;;;;;;8.68;1.20;;;16.20;99.90;;;;;;5043092;28;20351;-67
2022/07/02 06:16:51;;;;;;;7.65;1.30;;;16.20;99.90;;;;;;5046882;28;20018;-66
2022/07/02 06:19:17;;;;;;;4.38;1.15;;;16.30;99.90;;;;;;5046133;28;20021;-68
2022/07/02 06:21:43;;;;;;;6.00;1.23;;;16.40;99.90;;;;;;5046163;28;20017;-67
2022/07/02 06:24:10;;;;;;;7.15;1.20;;;16.40;99.90;;;;;;5046716;28;20095;-68
2022/07/02 06:26:36;;;;;;;5.07;1.30;;;16.60;99.70;;;;;;5046159;28;20017;-66
2022/07/02 06:29:02;;;;;;;4.30;0.95;;;16.80;99.60;;;;;;5047181;28;20185;-67
2022/07/02 06:31:28;;;;;;;4.15;1.05;;;16.90;99.20;;;;;;5046973;28;20025;-67
2022/07/02 06:33:53;;;;;;;5.60;1.23;;;16.90;98.90;;;;;;5062194;28;20025;-66
2022/07/02 06:36:21;;;;;;;5.32;1.13;;;17.00;98.90;;;;;;5046785;28;20028;-66
2022/07/02 06:38:48;;;;;;;4.35;1.05;;;16.90;98.80;;;;;;5076889;28;20021;-68
2022/07/02 06:43:59;;;;;;;8.23;1.30;;;17.00;98.60;;;;;;5059531;28;20021;-68
2022/07/02 06:46:25;;;;;;;7.07;1.42;;;17.00;98.80;;;;;;5046788;28;20020;-68
2022/07/02 06:48:50;;;;;;;5.45;1.13;;;17.00;98.80;;;;;;5078925;28;20084;-67
2022/07/02 06:51:16;;;;;;;7.03;1.60;;;17.00;98.80;;;;;;5045425;28;20054;-68
2022/07/02 06:53:42;;;;;;;7.28;1.30;;;16.90;98.90;;;;;;5044766;28;20308;-67
2022/07/02 06:56:07;;;;;;;8.10;1.90;;;16.80;99.10;;;;;;5046659;28;20021;-68
2022/07/02 06:58:33;;;;;;;6.93;1.30;;;16.90;99.70;;;;;;5046593;28;20024;-66
2022/07/02 07:00:59;;;;;;;4.97;1.10;;;16.80;99.70;;;;;;5046483;28;20026;-67
2022/07/02 07:03:24;;;;;;;8.05;0.90;;;16.80;99.70;;;;;;5046192;28;20117;-66
2022/07/02 07:05:52;;;;;;;7.53;0.98;;;16.80;99.40;;;;;;5046397;28;20026;-67
2022/07/02 07:08:17;;;;;;;6.93;1.20;;;16.70;99.70;;;;;;5046379;28;20028;-67
2022/07/02 07:10:43;;;;;;;7.15;1.50;;;16.80;99.70;;;;;;5046391;28;20025;-66
2022/07/02 07:13:09;;;;;;;8.85;1.35;;;16.80;99.60;;;;;;5078162;28;20192;-68
2022/07/02 07:15:35;;;;;;;8.73;1.23;;;16.90;99.70;;;;;;5046184;28;20040;-67
2022/07/02 07:18:01;;;;;;;8.93;1.60;;;17.00;99.30;;;;;;5046103;28;20313;-66
2022/07/02 07:20:29;;;;;;;8.75;1.83;;;17.10;99.30;;;;;;5046311;28;20328;-66
2022/07/02 07:22:55;;;;;;;4.65;1.40;;;17.20;99.30;;;;;;5061009;28;20204;-66
2022/07/02 07:25:21;;;;;;;7.05;1.23;;;17.20;99.10;;;;;;5045358;28;20246;-67
2022/07/02 07:27:48;;;;;;;6.30;0.95;;;17.20;99.00;;;;;;5077835;28;20059;-67
2022/07/02 07:30:14;;;;;;;8.13;1.50;;;17.20;99.00;;;;;;5044841;28;20021;-66
2022/07/02 07:32:39;;;;;;;7.07;1.23;;;17.10;99.10;;;;;;5046037;28;20320;-66
2022/07/02 07:35:05;;;;;;;9.10;1.20;;;17.10;99.30;;;;;;5045391;28;20036;-67
2022/07/02 07:37:31;;;;;;;4.72;1.17;;;17.00;99.10;;;;;;5042793;28;20089;-67
2022/07/02 07:39:57;;;;;;;6.03;1.25;;;16.90;99.40;;;;;;5044649;28;20029;-68
2022/07/02 07:42:22;;;;;;;6.30;1.00;;;17.00;99.50;;;;;;5044706;28;20028;-66
2022/07/02 07:44:49;;;;;;;4.93;1.02;;;17.10;99.30;;;;;;5044348;28;20053;-66
2022/07/02 07:47:15;;;;;;;5.47;1.30;;;17.10;99.30;;;;;;5045535;28;20025;-66
2022/07/02 07:49:41;;;;;;;5.43;1.77;;;17.10;99.40;;;;;;5044346;28;20021;-66
2022/07/02 07:52:07;;;;;;;7.50;1.45;;;17.10;99.20;;;;;;5027550;28;20045;-65
2022/07/02 07:54:33;;;;;;;8.77;1.33;;;17.20;99.10;;;;;;5043747;28;20025;-66
2022/07/02 07:56:59;;;;;;;5.72;1.17;;;17.30;99.10;;;;;;5044375;28;20026;-68
2022/07/02 07:59:24;;;;;;;4.85;1.40;;;17.30;98.90;;;;;;5045484;28;20017;-67
2022/07/02 08:01:50;;;;;;;6.22;1.23;;;17.30;98.80;;;;;;5027649;28;20017;-66
2022/07/02 08:04:16;;;;;;;5.15;1.13;;;17.20;98.90;;;;;;5043739;28;20018;-66
2022/07/02 08:06:42;;;;;;;10.30;1.60;;;17.10;99.00;;;;;;5044281;28;20021;-67
2022/07/02 08:09:08;;;;;;;5.20;1.13;;;17.20;99.30;;;;;;5043997;28;20032;-66
2022/07/02 08:11:33;;;;;;;7.85;1.42;;;17.30;99.20;;;;;;5045338;28;20025;-70
2022/07/02 08:13:59;;;;;;;5.85;1.58;;;17.40;99.10;;;;;;5027062;28;20029;-67
2022/07/02 08:16:25;;;;;;;8.40;1.52;;;17.50;98.90;;;;;;5043995;28;20079;-66
2022/07/02 08:18:51;;;;;;;7.35;1.45;;;17.50;98.60;;;;;;5045096;28;20017;-66
2022/07/02 08:21:18;;;;;;;5.10;1.20;;;17.50;98.80;;;;;;5027287;28;20097;-67
2022/07/02 08:23:44;;;;;;;7.80;1.83;;;17.40;99.00;;;;;;5043450;28;20033;-67
2022/07/02 08:26:09;;;;;;;10.27;1.75;;;17.20;99.20;;;;;;5043580;28;20076;-69
2022/07/02 08:28:35;;;;;;;11.85;1.95;;;17.30;99.30;;;;;;5044899;28;20344;-67
2022/07/02 08:31:01;;;;;;;9.13;1.55;;;17.20;99.80;;;;;;5044739;28;20013;-68
2022/07/02 08:33:27;;;;;;;12.40;1.92;;;17.20;99.70;;;;;;5044823;28;20044;-67
2022/07/02 08:35:52;;;;;;;8.70;2.05;;;17.20;99.60;;;;;;5044255;28;20044;-67
2022/07/02 08:38:18;;;;;;;8.65;1.67;;;17.20;99.50;;;;;;5042737;28;20072;-68
2022/07/02 08:40:44;;;;;;;8.23;1.38;;;17.20;99.50;;;;;;5044425;28;20044;-67
2022/07/02 08:43:12;;;;;;;8.48;1.90;;;17.20;99.50;;;;;;5076541;28;20037;-67
2022/07/02 08:45:40;;;;;;;5.63;1.48;;;17.10;99.90;;;;;;5076206;28;20092;-67
2022/07/02 08:48:07;;;;;;;11.00;1.65;;;17.00;99.90;;;;;;5044418;28;20036;-67
2022/07/02 08:50:34;;;;;;;8.07;1.70;;;16.90;99.90;;;;;;5059574;28;20248;-68
2022/07/02 08:53:00;;;;;;;7.28;1.80;;;16.90;99.90;;;;;;5043998;28;20049;-67
2022/07/02 08:55:28;;;;;;;5.85;1.33;;;16.90;99.90;;;;;;5044324;28;20113;-67
2022/07/02 08:57:55;;;;;;;7.63;1.33;;;17.10;99.90;;;;;;5076518;28;20029;-69
2022/07/02 09:00:22;;;;;;;4.28;0.88;;;17.40;99.80;;;;;;5042832;28;20036;-68
2022/07/02 09:02:51;;;;;;;12.65;1.23;;;17.50;99.00;;;;;;5043057;28;20032;-68
2022/07/02 09:05:18;;;;;;;7.45;1.48;;;17.60;99.00;;;;;;5075703;28;20080;-69
2022/07/02 09:07:46;;;;;;;6.63;1.00;;;17.80;98.60;;;;;;5076228;28;20211;-67
2022/07/02 09:10:11;;;;;;;5.90;1.00;;;17.80;98.30;;;;;;5044188;28;20032;-68
2022/07/02 09:12:38;;;;;;;2.60;1.00;;;17.80;98.70;;;;;;5042888;28;20025;-67
2022/07/02 09:15:05;;;;;;;3.42;0.80;;;17.80;98.80;;;;;;5059180;28;20087;-69
2022/07/02 09:17:31;;;;;;;3.38;0.80;;;18.10;98.50;;;;;;5059483;28;20041;-67
2022/07/02 09:19:57;;;;;;;3.45;0.90;;;18.30;98.40;;;;;;5076055;28;20025;-67
2022/07/02 09:22:32;;;;;;;6.05;1.20;;;17.90;99.90;;;;;;5076231;28;20028;-66
2022/07/02 09:25:07;;;;;;;4.60;1.00;;;17.50;99.90;;;;;;5043745;28;20035;-70
2022/07/02 09:27:33;;;;;;;3.22;0.80;;;17.30;99.90;;;;;;5075792;28;20309;-65
2022/07/02 09:29:58;;;;;;;2.42;1.17;;;17.10;99.90;;;;;;5043800;28;20033;-69
2022/07/02 09:32:24;;;;;;;2.13;0.80;;;17.20;99.90;;;;;;5076099;28;20067;-67
2022/07/02 09:34:51;;;;;;;1.95;0.65;;;17.00;99.90;;;;;;5059074;28;20037;-68
2022/07/02 09:37:23;;;;;;;2.05;0.75;;;17.00;99.90;;;;;;5059095;28;20228;-68
2022/07/02 09:39:50;;;;;;;1.92;0.70;;;17.00;99.90;;;;;;5057728;28;20022;-67
2022/07/02 09:42:33;;;;;;;4.88;0.70;;;17.00;99.90;;;;;;5059071;28;20026;-66
2022/07/02 09:45:03;;;;;;;3.22;0.70;;;17.00;99.90;;;;;;5042579;28;20059;-66
2022/07/02 09:47:33;;;;;;;3.10;0.60;;;16.80;99.90;;;;;;5042290;28;20021;-67
2022/07/02 09:50:09;;;;;;;1.90;0.40;;;16.70;99.90;;;;;;5045766;28;20052;-68
2022/07/02 09:52:36;;;;;;;0.22;0.10;;;16.50;99.90;;;;;;5049501;28;20370;-66
2022/07/02 09:55:03;;;;;;;1.70;0.30;;;16.10;99.90;;;;;;5046430;28;20324;-67
2022/07/02 09:57:29;;;;;;;0.70;0.28;;;15.60;99.90;;;;;;5046477;28;20033;-67
2022/07/02 10:00:07;;;;;;;0.85;0.30;;;15.40;99.90;;;;;;5047607;28;20017;-68
2022/07/02 10:02:37;;;;;;;0.45;0.20;;;15.30;99.90;;;;;;5062528;28;20028;-67
2022/07/02 10:05:05;;;;;;;0.47;0.22;;;15.30;99.90;;;;;;5062984;28;20322;-67
2022/07/02 10:07:31;;;;;;;0.68;0.30;;;15.40;99.90;;;;;;5062966;28;20061;-67
2022/07/02 10:10:02;;;;;;;2.05;0.30;;;15.40;99.90;;;;;;5063005;28;20132;-67
2022/07/02 10:12:28;;;;;;;0.43;0.20;;;15.40;99.90;;;;;;5047550;28;20021;-67
2022/07/02 10:14:56;;;;;;;0.90;0.20;;;15.40;99.90;;;;;;5079353;28;20048;-68
2022/07/02 10:17:23;;;;;;;0.88;0.28;;;15.50;99.90;;;;;;5047134;28;20029;-68
2022/07/02 10:19:51;;;;;;;0.30;0.20;;;15.50;99.90;;;;;;5046235;28;20033;-68
2022/07/02 10:22:19;;;;;;;0.40;0.22;;;15.60;99.90;;;;;;5047221;28;20033;-67
2022/07/02 10:24:46;;;;;;;0.38;0.20;;;15.70;99.90;;;;;;5062033;28;20217;-67
2022/07/02 10:27:12;;;;;;;1.50;0.30;;;15.50;99.90;;;;;;5047001;28;20029;-68
2022/07/02 10:29:40;;;;;;;1.13;0.40;;;15.30;99.90;;;;;;5047156;28;20044;-68
2022/07/02 10:32:26;;;;;;;0.40;0.30;;;15.30;99.90;;;;;;5079152;28;20028;-67
2022/07/02 10:35:14;;;;;;;1.35;0.50;;;15.30;99.90;;;;;;5061548;28;20021;-68
2022/07/02 10:37:41;;;;;;;1.50;0.30;;;15.30;99.90;;;;;;5072950;28;20035;-68
2022/07/02 10:40:08;;;;;;;0.75;0.57;;;15.40;99.90;;;;;;5077747;28;20018;-69
2022/07/02 10:42:41;;;;;;;0.40;0.40;;;15.40;99.90;;;;;;5079187;28;20029;-68
2022/07/02 10:45:14;;;;;;;1.35;0.60;;;15.50;99.90;;;;;;5046724;28;20028;-69
2022/07/02 10:48:08;;;;;;;1.17;0.30;;;15.40;99.90;;;;;;5046797;28;20017;-69
2022/07/02 10:50:41;;;;;;;0.80;0.40;;;15.20;99.90;;;;;;5045116;28;20021;-70
2022/07/02 10:53:20;;;;;;;0.80;0.38;;;15.10;99.90;;;;;;5078404;28;20017;-68
2022/07/02 10:56:02;;;;;;;1.13;0.60;;;15.00;99.90;;;;;;5076567;28;20029;-69
2022/07/02 10:58:31;;;;;;;0.40;0.35;;;15.00;99.90;;;;;;5045217;28;20029;-69
2022/07/02 11:01:08;;;;;;;0.25;0.20;;;14.90;99.90;;;;;;5044791;28;20160;-67
2022/07/02 11:03:34;;;;;;;1.27;0.45;;;14.90;99.90;;;;;;5078767;28;20028;-67
2022/07/02 11:06:02;;;;;;;2.47;0.40;;;15.00;99.90;;;;;;5046299;28;20029;-66
2022/07/02 11:08:48;;;;;;;0.73;0.50;;;15.00;99.90;;;;;;5078560;28;20266;-68
2022/07/02 11:11:48;;;;;;;0.60;0.38;;;15.20;99.90;;;;;;5046458;28;20032;-67
2022/07/02 11:14:17;;;;;;;1.77;0.70;;;15.30;99.90;;;;;;5069160;28;20137;-68
2022/07/02 11:16:51;;;;;;;2.78;0.50;;;15.30;99.90;;;;;;5078311;28;20029;-69
2022/07/02 11:19:25;;;;;;;2.28;0.63;;;15.50;99.90;;;;;;5078150;28;20309;-67
2022/07/02 11:21:54;;;;;;;2.20;0.50;;;15.70;99.90;;;;;;5078555;28;20060;-68
2022/07/02 11:24:22;;;;;;;1.98;0.82;;;15.70;99.90;;;;;;5045699;28;20208;-68
2022/07/02 11:26:48;;;;;;;1.65;0.55;;;15.80;99.90;;;;;;5046007;28;20208;-68
2022/07/02 11:29:14;;;;;;;1.67;0.80;;;16.00;99.90;;;;;;5045860;28;20021;-67
2022/07/02 11:31:44;;;;;;;0.93;0.57;;;16.10;99.90;;;;;;5061416;28;20021;-68
2022/07/02 11:34:10;;;;;;;0.98;0.80;;;16.30;99.90;;;;;;5077703;28;20024;-68
2022/07/02 11:36:38;;;;;;;2.90;0.70;;;16.40;99.90;;;;;;5061398;28;20269;-66
2022/07/02 11:39:15;;;;;;;1.60;0.70;;;16.50;99.90;;;;;;5045655;28;20362;-68
2022/07/02 11:41:42;;;;;;;1.13;0.65;;;16.70;99.90;;;;;;5076519;28;20185;-69
2022/07/02 11:44:25;;;;;;;1.92;0.40;;;16.60;99.90;;;;;;5045691;28;20116;-68
2022/07/02 11:46:52;;;;;;;1.75;0.60;;;16.80;99.90;;;;;;5061168;28;20060;-69
2022/07/02 11:49:24;;;;;;;2.05;0.50;;;16.90;99.90;;;;;;5045369;28;20092;-68
2022/07/02 11:51:52;;;;;;;2.13;0.50;;;17.10;99.90;;;;;;5045565;28;20053;-68
2022/07/02 11:54:18;;;;;;;1.48;0.40;;;17.30;99.90;;;;;;5045017;28;20075;-66
2022/07/02 11:56:46;;;;;;;1.60;0.30;;;17.40;99.90;;;;;;5045503;28;20017;-68
2022/07/02 11:59:14;;;;;;;0.50;0.30;;;17.50;99.90;;;;;;5060865;28;20212;-67
2022/07/02 12:01:42;;;;;;;1.67;0.40;;;17.60;99.90;;;;;;5060853;28;20021;-68
2022/07/02 12:04:10;;;;;;;0.88;0.45;;;17.70;99.90;;;;;;5044047;28;20044;-67
2022/07/02 12:06:39;;;;;;;3.70;0.60;;;17.80;99.90;;;;;;5077549;28;20033;-67
2022/07/02 12:09:08;;;;;;;0.82;0.52;;;17.80;99.90;;;;;;5060360;28;20035;-68
2022/07/02 12:11:35;;;;;;;5.20;0.50;;;17.90;99.90;;;;;;5060532;28;20028;-68
2022/07/02 12:14:01;;;;;;;0.80;0.40;;;18.00;99.90;;;;;;5043998;28;20308;-68
2022/07/02 12:16:28;;;;;;;2.00;0.32;;;18.10;99.90;;;;;;5060694;28;20033;-68
2022/07/02 12:18:57;;;;;;;1.25;0.40;;;18.30;99.90;;;;;;5060315;28;20118;-67
2022/07/02 12:21:31;;;;;;;1.48;0.60;;;18.70;99.80;;;;;;5043982;28;20018;-67
2022/07/02 12:23:56;;;;;;;0.68;0.47;;;19.10;99.10;;;;;;5044555;28;20101;-68
2022/07/02 12:26:24;;;;;;;2.75;0.40;;;19.40;97.80;;;;;;5044979;28;20021;-67
2022/07/02 12:31:42;;;;;;;1.10;0.30;;;19.70;97.50;;;;;;5057692;28;20094;-69
2022/07/02 12:34:08;;;;;;;2.47;0.45;;;19.80;96.60;;;;;;5043471;28;20304;-68
2022/07/02 12:36:44;;;;;;;1.13;0.50;;;19.70;97.20;;;;;;5044748;28;20028;-67
2022/07/02 12:39:09;;;;;;;1.77;0.40;;;19.80;97.50;;;;;;5043267;28;20096;-68
2022/07/02 12:41:38;;;;;;;2.28;0.30;;;20.00;96.20;;;;;;5042354;28;20411;-68
2022/07/02 12:44:04;;;;;;;2.35;0.32;;;20.10;94.60;;;;;;5044583;28;20067;-68
2022/07/02 12:46:30;;;;;;;1.48;0.50;;;19.70;95.20;;;;;;5043458;28;20267;-67
2022/07/02 12:48:55;;;;;;;2.42;0.60;;;19.50;95.20;;;;;;5044385;28;20045;-66
2022/07/02 12:51:22;;;;;;;2.05;0.57;;;19.60;96.10;;;;;;5044485;28;20049;-69
2022/07/02 12:54:01;;;;;;;1.55;0.30;;;19.70;95.30;;;;;;5043817;28;20025;-69
2022/07/02 12:56:28;;;;;;;1.27;0.43;;;19.60;94.00;;;;;;5043392;28;20147;-68